sensor_id;sensor_type;location;lat;lon;timestamp;pressure;altitude;pressure_sealevel;temperature;humidity
24031;BME280;12240;51.142;22.486;2022-07-29T00:00:40;99810.22;;;11.62;100.00
24031;BME280;12240;51.142;22.486;2022-07-29T00:03:08;99713.72;;;10.95;100.00
24031;BME280;12240;51.142;22.486;2022-07-29T00:05:39;99873.41;;;11.71;100.00
24031;BME280;12240;51.142;22.486;2022-07-29T00:08:09;99869.13;;;11.78;100.00
24031;BME280;12240;51.142;22.486;2022-07-29T00:10:39;99870.38;;;11.84;100.00
24031;BME280;12240;51.142;22.486;2022-07-29T00:13:08;99868.84;;;11.81;100.00
24031;BME280;12240;51.142;22.486;2022-07-29T00:15:36;99869.44;;;11.75;100.00
24031;BME280;12240;51.142;22.486;2022-07-29T00:18:04;99806.09;;;11.40;100.00
24031;BME280;12240;51.142;22.486;2022-07-29T00:20:33;99834.97;;;11.54;100.00
24031;BME280;12240;51.142;22.486;2022-07-29T00:23:01;99809.22;;;11.36;100.00
24031;BME280;12240;51.142;22.486;2022-07-29T00:25:29;99813.28;;;11.40;100.00
24031;BME280;12240;51.142;22.486;2022-07-29T00:28:00;99857.66;;;11.68;100.00
24031;BME280;12240;51.142;22.486;2022-07-29T00:30:28;99846.19;;;11.58;100.00
24031;BME280;12240;51.142;22.486;2022-07-29T00:32:56;99854.56;;;11.63;100.00
24031;BME280;12240;51.142;22.486;2022-07-29T00:35:25;99857.84;;;11.57;100.00
24031;BME280;12240;51.142;22.486;2022-07-29T00:38:17;99833.06;;;11.37;100.00
24031;BME280;12240;51.142;22.486;2022-07-29T00:40:47;99822.19;;;11.21;100.00
24031;BME280;12240;51.142;22.486;2022-07-29T00:43:16;99856.75;;;11.40;100.00
24031;BME280;12240;51.142;22.486;2022-07-29T00:45:44;99854.94;;;11.41;100.00
24031;BME280;12240;51.142;22.486;2022-07-29T00:48:13;99849.63;;;11.41;100.00
24031;BME280;12240;51.142;22.486;2022-07-29T00:50:42;99849.91;;;11.38;100.00
24031;BME280;12240;51.142;22.486;2022-07-29T00:53:12;99831.81;;;11.32;100.00
24031;BME280;12240;51.142;22.486;2022-07-29T00:55:40;99848.22;;;11.37;100.00
24031;BME280;12240;51.142;22.486;2022-07-29T00:58:09;99850.06;;;11.36;100.00
24031;BME280;12240;51.142;22.486;2022-07-29T01:00:39;99851.88;;;11.36;100.00
24031;BME280;12240;51.142;22.486;2022-07-29T01:03:08;99845.31;;;11.30;100.00
24031;BME280;12240;51.142;22.486;2022-07-29T01:05:37;99835.50;;;11.21;100.00
24031;BME280;12240;51.142;22.486;2022-07-29T01:08:18;99839.97;;;11.30;100.00
24031;BME280;12240;51.142;22.486;2022-07-29T01:10:48;99785.66;;;10.95;100.00
24031;BME280;12240;51.142;22.486;2022-07-29T01:13:17;99799.00;;;10.95;100.00
24031;BME280;12240;51.142;22.486;2022-07-29T01:15:56;99860.50;;;11.20;100.00
24031;BME280;12240;51.142;22.486;2022-07-29T01:18:34;99802.66;;;10.84;100.00
24031;BME280;12240;51.142;22.486;2022-07-29T01:24:20;99855.91;;;11.03;100.00
24031;BME280;12240;51.142;22.486;2022-07-29T01:30:22;99848.06;;;10.92;100.00
24031;BME280;12240;51.142;22.486;2022-07-29T01:33:01;99811.50;;;10.75;100.00
24031;BME280;12240;51.142;22.486;2022-07-29T01:35:39;99834.88;;;10.91;100.00
24031;BME280;12240;51.142;22.486;2022-07-29T01:38:21;99844.03;;;10.88;100.00
24031;BME280;12240;51.142;22.486;2022-07-29T01:41:02;99845.00;;;10.87;100.00
24031;BME280;12240;51.142;22.486;2022-07-29T01:43:41;99822.72;;;10.79;100.00
24031;BME280;12240;51.142;22.486;2022-07-29T01:46:17;99835.88;;;10.90;100.00
24031;BME280;12240;51.142;22.486;2022-07-29T01:48:53;99839.41;;;10.81;100.00
24031;BME280;12240;51.142;22.486;2022-07-29T01:51:34;99841.91;;;10.82;100.00
24031;BME280;12240;51.142;22.486;2022-07-29T01:56:59;99850.19;;;10.79;100.00
24031;BME280;12240;51.142;22.486;2022-07-29T01:59:29;99805.63;;;10.52;100.00
24031;BME280;12240;51.142;22.486;2022-07-29T02:01:58;99805.09;;;10.39;100.00
24031;BME280;12240;51.142;22.486;2022-07-29T02:04:28;99846.69;;;10.59;100.00
24031;BME280;12240;51.142;22.486;2022-07-29T02:07:03;99842.81;;;10.54;100.00
24031;BME280;12240;51.142;22.486;2022-07-29T02:09:35;99844.88;;;10.60;100.00
24031;BME280;12240;51.142;22.486;2022-07-29T02:12:04;99798.50;;;10.34;100.00
24031;BME280;12240;51.142;22.486;2022-07-29T02:14:41;99840.81;;;10.66;100.00
24031;BME280;12240;51.142;22.486;2022-07-29T02:17:11;99838.31;;;10.64;100.00
24031;BME280;12240;51.142;22.486;2022-07-29T02:19:41;99799.06;;;10.37;100.00
24031;BME280;12240;51.142;22.486;2022-07-29T02:22:12;99822.63;;;10.51;100.00
24031;BME280;12240;51.142;22.486;2022-07-29T02:24:43;99837.75;;;10.61;100.00
24031;BME280;12240;51.142;22.486;2022-07-29T02:27:13;99839.44;;;10.52;100.00
24031;BME280;12240;51.142;22.486;2022-07-29T02:29:45;99840.97;;;10.54;100.00
24031;BME280;12240;51.142;22.486;2022-07-29T02:32:14;99794.06;;;10.25;100.00
24031;BME280;12240;51.142;22.486;2022-07-29T02:34:45;99825.97;;;10.44;100.00
24031;BME280;12240;51.142;22.486;2022-07-29T02:37:16;99843.38;;;10.57;100.00
24031;BME280;12240;51.142;22.486;2022-07-29T02:39:45;99844.34;;;10.66;100.00
24031;BME280;12240;51.142;22.486;2022-07-29T02:42:17;99811.41;;;10.48;100.00
24031;BME280;12240;51.142;22.486;2022-07-29T02:44:46;99845.88;;;10.69;100.00
24031;BME280;12240;51.142;22.486;2022-07-29T02:50:20;99850.06;;;10.42;100.00
24031;BME280;12240;51.142;22.486;2022-07-29T02:53:07;99821.50;;;10.25;100.00
24031;BME280;12240;51.142;22.486;2022-07-29T02:55:49;99857.63;;;10.37;100.00
24031;BME280;12240;51.142;22.486;2022-07-29T02:58:32;99854.56;;;10.42;100.00
24031;BME280;12240;51.142;22.486;2022-07-29T03:01:11;99808.59;;;10.11;100.00
24031;BME280;12240;51.142;22.486;2022-07-29T03:03:51;99842.25;;;10.31;100.00
24031;BME280;12240;51.142;22.486;2022-07-29T03:06:23;99845.75;;;10.41;100.00
24031;BME280;12240;51.142;22.486;2022-07-29T03:09:07;99868.16;;;10.48;100.00
24031;BME280;12240;51.142;22.486;2022-07-29T03:11:42;99850.63;;;10.46;100.00
24031;BME280;12240;51.142;22.486;2022-07-29T03:14:18;99857.50;;;10.48;100.00
24031;BME280;12240;51.142;22.486;2022-07-29T03:16:49;99842.38;;;10.49;100.00
24031;BME280;12240;51.142;22.486;2022-07-29T03:19:18;99818.69;;;10.36;100.00
24031;BME280;12240;51.142;22.486;2022-07-29T03:21:47;99848.13;;;10.64;100.00
24031;BME280;12240;51.142;22.486;2022-07-29T03:24:34;99836.91;;;10.70;100.00
24031;BME280;12240;51.142;22.486;2022-07-29T03:27:04;99846.53;;;10.80;100.00
24031;BME280;12240;51.142;22.486;2022-07-29T03:29:33;99843.72;;;10.91;100.00
24031;BME280;12240;51.142;22.486;2022-07-29T03:32:04;99807.72;;;10.68;100.00
24031;BME280;12240;51.142;22.486;2022-07-29T03:34:36;99855.91;;;11.03;100.00
24031;BME280;12240;51.142;22.486;2022-07-29T03:37:06;99851.13;;;11.07;100.00
24031;BME280;12240;51.142;22.486;2022-07-29T03:39:40;99845.22;;;11.13;100.00
24031;BME280;12240;51.142;22.486;2022-07-29T03:42:13;99846.16;;;11.21;100.00
24031;BME280;12240;51.142;22.486;2022-07-29T03:44:45;99841.28;;;11.26;100.00
24031;BME280;12240;51.142;22.486;2022-07-29T03:47:19;99847.41;;;11.36;100.00
24031;BME280;12240;51.142;22.486;2022-07-29T03:50:11;99846.38;;;11.47;100.00
24031;BME280;12240;51.142;22.486;2022-07-29T03:52:42;99841.72;;;11.49;100.00
24031;BME280;12240;51.142;22.486;2022-07-29T03:55:12;99839.56;;;11.62;100.00
24031;BME280;12240;51.142;22.486;2022-07-29T03:57:42;99843.28;;;11.79;100.00
24031;BME280;12240;51.142;22.486;2022-07-29T04:00:13;99833.16;;;11.82;100.00
24031;BME280;12240;51.142;22.486;2022-07-29T04:02:44;99841.38;;;11.98;100.00
24031;BME280;12240;51.142;22.486;2022-07-29T04:05:18;99762.22;;;11.62;100.00
24031;BME280;12240;51.142;22.486;2022-07-29T04:07:49;99838.97;;;12.22;100.00
24031;BME280;12240;51.142;22.486;2022-07-29T04:10:19;99840.84;;;12.30;100.00
24031;BME280;12240;51.142;22.486;2022-07-29T04:12:59;99837.81;;;12.42;100.00
24031;BME280;12240;51.142;22.486;2022-07-29T04:15:28;99827.72;;;12.54;100.00
24031;BME280;12240;51.142;22.486;2022-07-29T04:17:59;99786.91;;;12.44;100.00
24031;BME280;12240;51.142;22.486;2022-07-29T04:20:27;99830.97;;;12.83;100.00
24031;BME280;12240;51.142;22.486;2022-07-29T04:22:56;99822.78;;;13.02;100.00
24031;BME280;12240;51.142;22.486;2022-07-29T04:25:24;99802.81;;;13.14;100.00
24031;BME280;12240;51.142;22.486;2022-07-29T04:27:52;99832.59;;;13.45;100.00
24031;BME280;12240;51.142;22.486;2022-07-29T04:30:31;99819.94;;;13.63;100.00
24031;BME280;12240;51.142;22.486;2022-07-29T04:33:01;99784.38;;;13.70;100.00
24031;BME280;12240;51.142;22.486;2022-07-29T04:35:30;99827.13;;;14.12;100.00
24031;BME280;12240;51.142;22.486;2022-07-29T04:38:06;99773.75;;;14.19;100.00
24031;BME280;12240;51.142;22.486;2022-07-29T04:40:42;99784.00;;;14.55;100.00
24031;BME280;12240;51.142;22.486;2022-07-29T04:43:10;99816.31;;;15.02;100.00
24031;BME280;12240;51.142;22.486;2022-07-29T04:45:42;99814.09;;;15.30;100.00
24031;BME280;12240;51.142;22.486;2022-07-29T04:48:10;99825.75;;;15.61;100.00
24031;BME280;12240;51.142;22.486;2022-07-29T04:50:39;99783.59;;;15.69;100.00
24031;BME280;12240;51.142;22.486;2022-07-29T04:53:08;99818.44;;;16.16;100.00
24031;BME280;12240;51.142;22.486;2022-07-29T04:55:36;99821.22;;;16.53;100.00
24031;BME280;12240;51.142;22.486;2022-07-29T04:58:06;99826.28;;;16.93;100.00
24031;BME280;12240;51.142;22.486;2022-07-29T05:00:35;99830.69;;;17.09;100.00
24031;BME280;12240;51.142;22.486;2022-07-29T05:03:03;99786.59;;;17.10;100.00
24031;BME280;12240;51.142;22.486;2022-07-29T05:05:32;99832.22;;;17.55;100.00
24031;BME280;12240;51.142;22.486;2022-07-29T05:08:00;99839.84;;;17.81;100.00
24031;BME280;12240;51.142;22.486;2022-07-29T05:10:28;99822.31;;;18.06;100.00
24031;BME280;12240;51.142;22.486;2022-07-29T05:12:57;99840.91;;;18.15;100.00
24031;BME280;12240;51.142;22.486;2022-07-29T05:15:25;99838.44;;;18.35;100.00
24031;BME280;12240;51.142;22.486;2022-07-29T05:17:53;99832.41;;;18.54;100.00
24031;BME280;12240;51.142;22.486;2022-07-29T05:20:22;99837.13;;;18.88;100.00
24031;BME280;12240;51.142;22.486;2022-07-29T05:22:56;99834.13;;;18.76;100.00
24031;BME280;12240;51.142;22.486;2022-07-29T05:25:25;99825.84;;;19.05;100.00
24031;BME280;12240;51.142;22.486;2022-07-29T05:28:11;99833.78;;;19.13;100.00
24031;BME280;12240;51.142;22.486;2022-07-29T05:30:40;99835.69;;;19.40;100.00
24031;BME280;12240;51.142;22.486;2022-07-29T05:33:10;99825.19;;;19.52;100.00
24031;BME280;12240;51.142;22.486;2022-07-29T05:35:58;99801.28;;;19.55;100.00
24031;BME280;12240;51.142;22.486;2022-07-29T05:38:28;99848.06;;;19.97;100.00
24031;BME280;12240;51.142;22.486;2022-07-29T05:40:59;99848.63;;;20.26;100.00
24031;BME280;12240;51.142;22.486;2022-07-29T05:43:28;99802.56;;;20.07;100.00
24031;BME280;12240;51.142;22.486;2022-07-29T05:45:56;99842.84;;;20.42;100.00
24031;BME280;12240;51.142;22.486;2022-07-29T05:48:24;99820.00;;;20.58;100.00
24031;BME280;12240;51.142;22.486;2022-07-29T05:50:53;99837.31;;;20.96;100.00
24031;BME280;12240;51.142;22.486;2022-07-29T05:53:22;99840.91;;;21.03;100.00
24031;BME280;12240;51.142;22.486;2022-07-29T05:55:51;99836.09;;;21.12;100.00
24031;BME280;12240;51.142;22.486;2022-07-29T05:58:20;99808.38;;;20.70;100.00
24031;BME280;12240;51.142;22.486;2022-07-29T06:00:48;99842.75;;;20.90;100.00
24031;BME280;12240;51.142;22.486;2022-07-29T06:03:16;99812.09;;;20.76;100.00
24031;BME280;12240;51.142;22.486;2022-07-29T06:05:44;99854.81;;;21.46;100.00
24031;BME280;12240;51.142;22.486;2022-07-29T06:08:12;99851.88;;;21.54;100.00
24031;BME280;12240;51.142;22.486;2022-07-29T06:10:40;99853.06;;;21.97;100.00
24031;BME280;12240;51.142;22.486;2022-07-29T06:13:09;99814.03;;;22.05;100.00
24031;BME280;12240;51.142;22.486;2022-07-29T06:15:38;99848.69;;;21.89;100.00
24031;BME280;12240;51.142;22.486;2022-07-29T06:18:06;99802.84;;;21.81;100.00
24031;BME280;12240;51.142;22.486;2022-07-29T06:20:37;99846.44;;;22.37;100.00
24031;BME280;12240;51.142;22.486;2022-07-29T06:23:06;99845.19;;;22.33;100.00
24031;BME280;12240;51.142;22.486;2022-07-29T06:25:34;99821.78;;;22.39;98.63
24031;BME280;12240;51.142;22.486;2022-07-29T06:28:05;99799.78;;;22.16;100.00
24031;BME280;12240;51.142;22.486;2022-07-29T06:30:33;99846.84;;;21.83;100.00
24031;BME280;12240;51.142;22.486;2022-07-29T06:33:02;99837.03;;;21.76;100.00
24031;BME280;12240;51.142;22.486;2022-07-29T06:35:32;99819.06;;;21.94;100.00
24031;BME280;12240;51.142;22.486;2022-07-29T06:38:09;99837.09;;;22.27;98.18
24031;BME280;12240;51.142;22.486;2022-07-29T06:40:58;99826.28;;;22.51;91.99
24031;BME280;12240;51.142;22.486;2022-07-29T06:43:42;99835.56;;;22.75;92.69
24031;BME280;12240;51.142;22.486;2022-07-29T06:46:19;99833.44;;;23.08;90.57
24031;BME280;12240;51.142;22.486;2022-07-29T06:48:48;99847.13;;;22.64;85.75
24031;BME280;12240;51.142;22.486;2022-07-29T06:51:18;99826.03;;;22.66;84.83
24031;BME280;12240;51.142;22.486;2022-07-29T06:53:51;99833.75;;;22.93;88.69
24031;BME280;12240;51.142;22.486;2022-07-29T06:56:34;99825.28;;;23.33;88.43
24031;BME280;12240;51.142;22.486;2022-07-29T06:59:08;99827.19;;;23.75;88.45
24031;BME280;12240;51.142;22.486;2022-07-29T07:01:39;99804.56;;;23.92;87.06
24031;BME280;12240;51.142;22.486;2022-07-29T07:04:09;99829.22;;;24.15;80.11
24031;BME280;12240;51.142;22.486;2022-07-29T07:06:37;99828.09;;;24.05;74.78
24031;BME280;12240;51.142;22.486;2022-07-29T07:09:05;99828.22;;;23.74;73.93
24031;BME280;12240;51.142;22.486;2022-07-29T07:11:34;99834.84;;;24.02;80.50
24031;BME280;12240;51.142;22.486;2022-07-29T07:14:02;99835.19;;;24.54;76.85
24031;BME280;12240;51.142;22.486;2022-07-29T07:16:32;99825.59;;;24.92;73.04
24031;BME280;12240;51.142;22.486;2022-07-29T07:19:01;99789.69;;;24.43;70.66
24031;BME280;12240;51.142;22.486;2022-07-29T07:21:29;99833.06;;;24.56;68.87
24031;BME280;12240;51.142;22.486;2022-07-29T07:23:59;99825.13;;;24.25;66.49
24031;BME280;12240;51.142;22.486;2022-07-29T07:26:27;99831.13;;;24.74;66.68
24031;BME280;12240;51.142;22.486;2022-07-29T07:28:56;99812.81;;;24.52;66.64
24031;BME280;12240;51.142;22.486;2022-07-29T07:31:24;99825.94;;;24.73;69.71
24031;BME280;12240;51.142;22.486;2022-07-29T07:33:52;99802.88;;;24.87;67.62
24031;BME280;12240;51.142;22.486;2022-07-29T07:36:21;99829.75;;;24.83;67.51
24031;BME280;12240;51.142;22.486;2022-07-29T07:38:50;99826.53;;;24.75;68.86
24031;BME280;12240;51.142;22.486;2022-07-29T07:41:18;99836.53;;;25.04;69.33
24031;BME280;12240;51.142;22.486;2022-07-29T07:43:47;99819.38;;;25.15;69.15
24031;BME280;12240;51.142;22.486;2022-07-29T07:46:15;99825.41;;;25.28;66.76
24031;BME280;12240;51.142;22.486;2022-07-29T07:48:43;99840.19;;;24.86;65.72
24031;BME280;12240;51.142;22.486;2022-07-29T07:51:12;99788.16;;;24.17;68.09
24031;BME280;12240;51.142;22.486;2022-07-29T07:53:40;99829.09;;;24.70;71.77
24031;BME280;12240;51.142;22.486;2022-07-29T07:56:09;99821.88;;;25.28;67.19
24031;BME280;12240;51.142;22.486;2022-07-29T07:58:39;99826.03;;;25.65;64.61
24031;BME280;12240;51.142;22.486;2022-07-29T08:01:09;99698.16;;;25.06;63.45
24031;BME280;12240;51.142;22.486;2022-07-29T08:03:38;99792.00;;;25.10;63.44
24031;BME280;12240;51.142;22.486;2022-07-29T08:06:06;99821.53;;;25.71;62.12
24031;BME280;12240;51.142;22.486;2022-07-29T08:08:35;99825.28;;;26.16;61.86
24031;BME280;12240;51.142;22.486;2022-07-29T08:11:03;99833.91;;;26.24;59.21
24031;BME280;12240;51.142;22.486;2022-07-29T08:13:37;99823.06;;;26.58;59.24
24031;BME280;12240;51.142;22.486;2022-07-29T08:16:07;99794.50;;;26.20;59.62
24031;BME280;12240;51.142;22.486;2022-07-29T08:18:45;99801.84;;;25.69;58.48
24031;BME280;12240;51.142;22.486;2022-07-29T08:21:14;99841.41;;;25.94;58.33
24031;BME280;12240;51.142;22.486;2022-07-29T08:23:45;99787.16;;;26.21;57.46
24031;BME280;12240;51.142;22.486;2022-07-29T08:26:43;99827.75;;;26.74;57.96
24031;BME280;12240;51.142;22.486;2022-07-29T08:29:12;99838.66;;;27.02;57.45
24031;BME280;12240;51.142;22.486;2022-07-29T08:31:46;99838.94;;;27.50;58.35
24031;BME280;12240;51.142;22.486;2022-07-29T08:34:14;99833.44;;;27.17;57.20
24031;BME280;12240;51.142;22.486;2022-07-29T08:36:42;99818.78;;;27.39;57.37
24031;BME280;12240;51.142;22.486;2022-07-29T08:39:16;99819.91;;;27.60;57.54
24031;BME280;12240;51.142;22.486;2022-07-29T08:41:45;99813.31;;;27.94;57.98
24031;BME280;12240;51.142;22.486;2022-07-29T08:44:24;99826.41;;;28.35;55.82
24031;BME280;12240;51.142;22.486;2022-07-29T08:46:57;99794.94;;;28.16;55.20
24031;BME280;12240;51.142;22.486;2022-07-29T08:49:25;99797.16;;;27.38;54.06
24031;BME280;12240;51.142;22.486;2022-07-29T08:51:53;99821.94;;;28.51;56.73
24031;BME280;12240;51.142;22.486;2022-07-29T08:54:24;99831.16;;;28.45;55.33
24031;BME280;12240;51.142;22.486;2022-07-29T08:56:52;99826.41;;;28.35;55.71
24031;BME280;12240;51.142;22.486;2022-07-29T08:59:25;99822.34;;;28.16;54.05
24031;BME280;12240;51.142;22.486;2022-07-29T09:01:59;99824.13;;;28.06;55.47
24031;BME280;12240;51.142;22.486;2022-07-29T09:04:31;99773.78;;;27.90;56.43
24031;BME280;12240;51.142;22.486;2022-07-29T09:07:04;99783.69;;;28.13;56.35
24031;BME280;12240;51.142;22.486;2022-07-29T09:09:33;99796.72;;;28.76;55.04
24031;BME280;12240;51.142;22.486;2022-07-29T09:12:01;99732.56;;;27.97;54.73
24031;BME280;12240;51.142;22.486;2022-07-29T09:14:31;99781.25;;;27.73;53.64
24031;BME280;12240;51.142;22.486;2022-07-29T09:17:00;99804.72;;;28.82;55.75
24031;BME280;12240;51.142;22.486;2022-07-29T09:19:35;99789.69;;;29.16;54.94
24031;BME280;12240;51.142;22.486;2022-07-29T09:22:06;99801.41;;;29.48;53.89
24031;BME280;12240;51.142;22.486;2022-07-29T09:24:44;99809.91;;;29.89;52.71
24031;BME280;12240;51.142;22.486;2022-07-29T09:27:25;99756.19;;;28.83;50.32
24031;BME280;12240;51.142;22.486;2022-07-29T09:30:10;99788.72;;;28.74;51.30
24031;BME280;12240;51.142;22.486;2022-07-29T09:32:57;99767.53;;;28.91;52.91
24031;BME280;12240;51.142;22.486;2022-07-29T09:35:26;99786.16;;;28.62;51.58
24031;BME280;12240;51.142;22.486;2022-07-29T09:37:55;99791.56;;;28.31;52.11
24031;BME280;12240;51.142;22.486;2022-07-29T09:40:27;99799.91;;;28.67;52.66
24031;BME280;12240;51.142;22.486;2022-07-29T09:42:55;99785.63;;;29.24;53.98
24031;BME280;12240;51.142;22.486;2022-07-29T09:45:31;99798.31;;;29.35;52.67
24031;BME280;12240;51.142;22.486;2022-07-29T09:48:18;99794.69;;;28.39;52.65
24031;BME280;12240;51.142;22.486;2022-07-29T09:50:47;99744.88;;;28.21;52.71
24031;BME280;12240;51.142;22.486;2022-07-29T09:53:36;99781.56;;;28.68;52.79
24031;BME280;12240;51.142;22.486;2022-07-29T09:56:06;99779.19;;;29.08;53.40
24031;BME280;12240;51.142;22.486;2022-07-29T09:58:33;99779.84;;;29.20;52.28
24031;BME280;12240;51.142;22.486;2022-07-29T10:01:03;99773.22;;;29.58;51.09
24031;BME280;12240;51.142;22.486;2022-07-29T10:03:31;99738.78;;;28.99;50.12
24031;BME280;12240;51.142;22.486;2022-07-29T10:06:08;99767.03;;;28.67;49.66
24031;BME280;12240;51.142;22.486;2022-07-29T10:08:37;99737.31;;;28.54;51.89
24031;BME280;12240;51.142;22.486;2022-07-29T10:11:17;99770.03;;;28.98;53.39
24031;BME280;12240;51.142;22.486;2022-07-29T10:13:48;99764.53;;;29.71;51.83
24031;BME280;12240;51.142;22.486;2022-07-29T10:16:17;99762.44;;;29.93;51.58
24031;BME280;12240;51.142;22.486;2022-07-29T10:18:45;99762.53;;;30.23;50.28
24031;BME280;12240;51.142;22.486;2022-07-29T10:21:15;99759.31;;;30.46;50.50
24031;BME280;12240;51.142;22.486;2022-07-29T10:24:04;99748.41;;;30.81;49.62
24031;BME280;12240;51.142;22.486;2022-07-29T10:26:42;99757.97;;;30.74;48.47
24031;BME280;12240;51.142;22.486;2022-07-29T10:29:12;99766.31;;;29.97;48.45
24031;BME280;12240;51.142;22.486;2022-07-29T10:35:08;99755.81;;;30.96;48.56
24031;BME280;12240;51.142;22.486;2022-07-29T10:44:12;99699.97;;;30.55;47.31
24031;BME280;12240;51.142;22.486;2022-07-29T10:46:46;99755.66;;;31.81;47.18
24031;BME280;12240;51.142;22.486;2022-07-29T10:57:13;99757.69;;;31.56;46.90
24031;BME280;12240;51.142;22.486;2022-07-29T10:59:44;99753.03;;;31.21;45.80
24031;BME280;12240;51.142;22.486;2022-07-29T11:13:51;99750.94;;;32.46;46.08
24031;BME280;12240;51.142;22.486;2022-07-29T11:16:23;99742.38;;;32.86;44.62
24031;BME280;12240;51.142;22.486;2022-07-29T11:21:43;99743.84;;;32.40;45.32
24031;BME280;12240;51.142;22.486;2022-07-29T11:24:27;99738.19;;;32.60;44.75
24031;BME280;12240;51.142;22.486;2022-07-29T11:27:15;99736.63;;;32.82;44.85
24031;BME280;12240;51.142;22.486;2022-07-29T11:30:04;99713.78;;;31.84;44.78
24031;BME280;12240;51.142;22.486;2022-07-29T11:32:44;99737.72;;;31.99;43.80
24031;BME280;12240;51.142;22.486;2022-07-29T11:35:23;99732.28;;;31.74;43.75
24031;BME280;12240;51.142;22.486;2022-07-29T11:38:26;99740.38;;;32.14;43.19
24031;BME280;12240;51.142;22.486;2022-07-29T11:43:56;99704.28;;;33.50;43.36
24031;BME280;12240;51.142;22.486;2022-07-29T11:46:48;99721.66;;;31.47;42.63
24031;BME280;12240;51.142;22.486;2022-07-29T11:49:21;99707.72;;;32.36;44.16
24031;BME280;12240;51.142;22.486;2022-07-29T11:52:10;99731.53;;;32.17;42.41
24031;BME280;12240;51.142;22.486;2022-07-29T11:54:42;99722.47;;;31.43;43.09
24031;BME280;12240;51.142;22.486;2022-07-29T11:57:28;99733.28;;;32.03;42.96
24031;BME280;12240;51.142;22.486;2022-07-29T12:00:07;99679.78;;;32.14;43.61
24031;BME280;12240;51.142;22.486;2022-07-29T12:02:45;99715.28;;;33.74;42.90
24031;BME280;12240;51.142;22.486;2022-07-29T12:05:16;99716.25;;;33.36;42.83
24031;BME280;12240;51.142;22.486;2022-07-29T12:08:19;99718.13;;;33.69;42.61
24031;BME280;12240;51.142;22.486;2022-07-29T12:10:51;99712.81;;;33.96;42.00
24031;BME280;12240;51.142;22.486;2022-07-29T12:13:20;99717.81;;;34.12;42.68
24031;BME280;12240;51.142;22.486;2022-07-29T12:16:04;99713.00;;;33.81;42.72
24031;BME280;12240;51.142;22.486;2022-07-29T12:18:33;99721.19;;;31.94;42.99
24031;BME280;12240;51.142;22.486;2022-07-29T12:21:02;99715.56;;;31.50;43.62
24031;BME280;12240;51.142;22.486;2022-07-29T12:23:32;99712.09;;;30.79;43.61
24031;BME280;12240;51.142;22.486;2022-07-29T12:26:05;99663.38;;;31.10;43.39
24031;BME280;12240;51.142;22.486;2022-07-29T12:28:48;99702.81;;;32.28;43.43
24031;BME280;12240;51.142;22.486;2022-07-29T12:31:17;99700.13;;;32.62;43.58
24031;BME280;12240;51.142;22.486;2022-07-29T12:34:05;99695.84;;;33.37;44.75
24031;BME280;12240;51.142;22.486;2022-07-29T12:36:33;99646.88;;;32.28;42.42
24031;BME280;12240;51.142;22.486;2022-07-29T12:39:03;99693.25;;;32.16;42.50
24031;BME280;12240;51.142;22.486;2022-07-29T12:41:32;99694.66;;;32.08;44.96
24031;BME280;12240;51.142;22.486;2022-07-29T12:44:00;99696.81;;;32.21;44.30
24031;BME280;12240;51.142;22.486;2022-07-29T12:46:28;99692.50;;;32.82;43.84
24031;BME280;12240;51.142;22.486;2022-07-29T12:48:56;99677.31;;;32.80;43.70
24031;BME280;12240;51.142;22.486;2022-07-29T12:51:37;99687.59;;;32.36;42.64
24031;BME280;12240;51.142;22.486;2022-07-29T12:54:15;99667.16;;;32.47;43.36
24031;BME280;12240;51.142;22.486;2022-07-29T12:56:44;99674.06;;;32.39;43.64
24031;BME280;12240;51.142;22.486;2022-07-29T12:59:18;99571.06;;;31.48;44.33
24031;BME280;12240;51.142;22.486;2022-07-29T13:01:50;99668.34;;;31.92;44.35
24031;BME280;12240;51.142;22.486;2022-07-29T13:04:32;99668.81;;;32.04;44.78
24031;BME280;12240;51.142;22.486;2022-07-29T13:07:06;99658.19;;;31.77;44.29
24031;BME280;12240;51.142;22.486;2022-07-29T13:12:38;99655.44;;;32.26;44.11
24031;BME280;12240;51.142;22.486;2022-07-29T13:15:14;99630.91;;;31.81;44.55
24031;BME280;12240;51.142;22.486;2022-07-29T13:17:43;99618.81;;;31.87;44.79
24031;BME280;12240;51.142;22.486;2022-07-29T13:20:14;99655.69;;;32.63;44.84
24031;BME280;12240;51.142;22.486;2022-07-29T13:22:48;99638.41;;;32.86;44.54
24031;BME280;12240;51.142;22.486;2022-07-29T13:25:32;99645.22;;;32.65;44.63
24031;BME280;12240;51.142;22.486;2022-07-29T13:28:01;99645.97;;;32.37;44.80
24031;BME280;12240;51.142;22.486;2022-07-29T13:30:30;99573.66;;;31.78;45.36
24031;BME280;12240;51.142;22.486;2022-07-29T13:32:58;99638.06;;;31.77;45.65
24031;BME280;12240;51.142;22.486;2022-07-29T13:35:26;99636.47;;;31.71;45.44
24031;BME280;12240;51.142;22.486;2022-07-29T13:37:57;99643.81;;;31.85;45.48
24031;BME280;12240;51.142;22.486;2022-07-29T13:40:25;99630.25;;;32.38;45.92
24031;BME280;12240;51.142;22.486;2022-07-29T13:42:53;99642.66;;;32.74;45.62
24031;BME280;12240;51.142;22.486;2022-07-29T13:45:22;99641.44;;;32.56;45.79
24031;BME280;12240;51.142;22.486;2022-07-29T13:47:50;99642.09;;;32.43;45.42
24031;BME280;12240;51.142;22.486;2022-07-29T13:50:18;99646.63;;;30.92;45.30
24031;BME280;12240;51.142;22.486;2022-07-29T13:52:46;99642.28;;;31.69;46.61
24031;BME280;12240;51.142;22.486;2022-07-29T13:55:16;99637.69;;;31.50;45.50
24031;BME280;12240;51.142;22.486;2022-07-29T13:57:44;99629.00;;;31.13;46.01
24031;BME280;12240;51.142;22.486;2022-07-29T14:00:13;99625.59;;;32.00;44.40
24031;BME280;12240;51.142;22.486;2022-07-29T14:02:44;99625.41;;;31.81;45.26